sensor_id;sensor_type;location;lat;lon;timestamp;pressure;altitude;pressure_sealevel;temperature;humidity
56182;BME280;51963;46.052;14.544;2023-09-08T00:02:25;98824.97;;;14.19;100.00
56182;BME280;51963;46.052;14.544;2023-09-08T00:04:51;98814.78;;;14.23;100.00
56182;BME280;51963;46.052;14.544;2023-09-08T00:07:16;98825.59;;;14.21;100.00
56182;BME280;51963;46.052;14.544;2023-09-08T00:09:42;98820.50;;;14.27;100.00
56182;BME280;51963;46.052;14.544;2023-09-08T00:12:08;98810.44;;;14.15;100.00
56182;BME280;51963;46.052;14.544;2023-09-08T00:14:33;98813.75;;;14.31;100.00
56182;BME280;51963;46.052;14.544;2023-09-08T00:16:59;98804.16;;;14.23;100.00
56182;BME280;51963;46.052;14.544;2023-09-08T00:19:25;98806.38;;;14.19;100.00
56182;BME280;51963;46.052;14.544;2023-09-08T00:21:50;98816.38;;;14.17;100.00
56182;BME280;51963;46.052;14.544;2023-09-08T00:24:16;98830.53;;;14.18;100.00
56182;BME280;51963;46.052;14.544;2023-09-08T00:26:43;98824.19;;;14.19;100.00
56182;BME280;51963;46.052;14.544;2023-09-08T00:29:08;98827.81;;;14.11;100.00
56182;BME280;51963;46.052;14.544;2023-09-08T00:31:34;98816.13;;;13.92;100.00
56182;BME280;51963;46.052;14.544;2023-09-08T00:34:00;98828.00;;;14.03;100.00
56182;BME280;51963;46.052;14.544;2023-09-08T00:36:25;98818.03;;;14.12;100.00
56182;BME280;51963;46.052;14.544;2023-09-08T00:38:51;98828.00;;;14.03;100.00
56182;BME280;51963;46.052;14.544;2023-09-08T00:41:17;98824.09;;;13.99;100.00
56182;BME280;51963;46.052;14.544;2023-09-08T00:43:42;98819.22;;;14.02;100.00
56182;BME280;51963;46.052;14.544;2023-09-08T00:46:08;98785.00;;;13.86;100.00
56182;BME280;51963;46.052;14.544;2023-09-08T00:48:35;98799.16;;;13.93;100.00
56182;BME280;51963;46.052;14.544;2023-09-08T00:51:01;98817.97;;;13.98;100.00
56182;BME280;51963;46.052;14.544;2023-09-08T00:53:27;98795.03;;;13.90;100.00
56182;BME280;51963;46.052;14.544;2023-09-08T00:55:54;98816.28;;;13.90;100.00
56182;BME280;51963;46.052;14.544;2023-09-08T00:58:20;98801.72;;;13.73;100.00
56182;BME280;51963;46.052;14.544;2023-09-08T01:00:46;98803.38;;;13.81;100.00
56182;BME280;51963;46.052;14.544;2023-09-08T01:03:12;98819.56;;;13.92;100.00
56182;BME280;51963;46.052;14.544;2023-09-08T01:05:38;98792.88;;;13.59;100.00
56182;BME280;51963;46.052;14.544;2023-09-08T01:08:04;98809.59;;;13.53;100.00
56182;BME280;51963;46.052;14.544;2023-09-08T01:10:30;98801.47;;;13.68;100.00
56182;BME280;51963;46.052;14.544;2023-09-08T01:12:56;98814.75;;;13.68;100.00
56182;BME280;51963;46.052;14.544;2023-09-08T01:15:22;98813.75;;;13.69;100.00
56182;BME280;51963;46.052;14.544;2023-09-08T01:17:47;98801.06;;;13.64;100.00
56182;BME280;51963;46.052;14.544;2023-09-08T01:20:25;98797.56;;;13.63;100.00
56182;BME280;51963;46.052;14.544;2023-09-08T01:23:03;98808.03;;;13.72;100.00
56182;BME280;51963;46.052;14.544;2023-09-08T01:26:01;98788.97;;;13.55;100.00
56182;BME280;51963;46.052;14.544;2023-09-08T01:28:26;98790.38;;;13.51;100.00
56182;BME280;51963;46.052;14.544;2023-09-08T01:30:52;98792.81;;;13.52;100.00
56182;BME280;51963;46.052;14.544;2023-09-08T01:33:20;98804.28;;;13.53;100.00
56182;BME280;51963;46.052;14.544;2023-09-08T01:35:47;98793.91;;;13.64;100.00
56182;BME280;51963;46.052;14.544;2023-09-08T01:38:13;98804.06;;;13.54;100.00
56182;BME280;51963;46.052;14.544;2023-09-08T01:40:39;98803.91;;;13.62;100.00
56182;BME280;51963;46.052;14.544;2023-09-08T01:43:07;98808.59;;;13.60;100.00
56182;BME280;51963;46.052;14.544;2023-09-08T01:45:33;98808.09;;;13.85;100.00
56182;BME280;51963;46.052;14.544;2023-09-08T01:47:58;98800.41;;;13.55;100.00
56182;BME280;51963;46.052;14.544;2023-09-08T01:50:25;98798.34;;;13.51;100.00
56182;BME280;51963;46.052;14.544;2023-09-08T01:52:51;98799.75;;;13.46;100.00
56182;BME280;51963;46.052;14.544;2023-09-08T01:55:17;98797.50;;;13.50;100.00
56182;BME280;51963;46.052;14.544;2023-09-08T01:57:43;98791.97;;;13.45;100.00
56182;BME280;51963;46.052;14.544;2023-09-08T02:00:10;98783.81;;;13.46;100.00
56182;BME280;51963;46.052;14.544;2023-09-08T02:02:39;98796.94;;;13.61;100.00
56182;BME280;51963;46.052;14.544;2023-09-08T02:05:06;98781.72;;;13.42;100.00
56182;BME280;51963;46.052;14.544;2023-09-08T02:07:32;98793.59;;;13.46;100.00
56182;BME280;51963;46.052;14.544;2023-09-08T02:09:57;98784.47;;;13.55;100.00
56182;BME280;51963;46.052;14.544;2023-09-08T02:12:23;98794.06;;;13.56;100.00
56182;BME280;51963;46.052;14.544;2023-09-08T02:14:51;98792.59;;;13.47;100.00
56182;BME280;51963;46.052;14.544;2023-09-08T02:17:19;98791.63;;;13.26;100.00
56182;BME280;51963;46.052;14.544;2023-09-08T02:19:45;98785.28;;;13.27;100.00
56182;BME280;51963;46.052;14.544;2023-09-08T02:22:11;98783.41;;;13.21;100.00
56182;BME280;51963;46.052;14.544;2023-09-08T02:24:36;98784.50;;;13.27;100.00
56182;BME280;51963;46.052;14.544;2023-09-08T02:27:02;98785.69;;;13.24;100.00
56182;BME280;51963;46.052;14.544;2023-09-08T02:29:29;98778.34;;;13.26;100.00
56182;BME280;51963;46.052;14.544;2023-09-08T02:31:54;98784.19;;;13.15;100.00
56182;BME280;51963;46.052;14.544;2023-09-08T02:34:20;98793.19;;;13.20;100.00
56182;BME280;51963;46.052;14.544;2023-09-08T02:36:45;98789.88;;;13.12;100.00
56182;BME280;51963;46.052;14.544;2023-09-08T02:39:14;98783.19;;;13.16;100.00
56182;BME280;51963;46.052;14.544;2023-09-08T02:41:40;98793.66;;;13.24;100.00
56182;BME280;51963;46.052;14.544;2023-09-08T02:44:05;98780.69;;;13.08;100.00
56182;BME280;51963;46.052;14.544;2023-09-08T02:46:31;98771.31;;;13.12;100.00
56182;BME280;51963;46.052;14.544;2023-09-08T02:48:58;98788.28;;;13.17;100.00
56182;BME280;51963;46.052;14.544;2023-09-08T02:51:23;98781.94;;;13.12;100.00
56182;BME280;51963;46.052;14.544;2023-09-08T02:53:49;98767.88;;;12.89;100.00
56182;BME280;51963;46.052;14.544;2023-09-08T02:56:15;98767.88;;;12.89;100.00
56182;BME280;51963;46.052;14.544;2023-09-08T02:58:40;98774.78;;;12.84;100.00
56182;BME280;51963;46.052;14.544;2023-09-08T03:01:17;98785.66;;;12.89;100.00
56182;BME280;51963;46.052;14.544;2023-09-08T03:03:46;98786.28;;;12.91;100.00
56182;BME280;51963;46.052;14.544;2023-09-08T03:06:17;98773.16;;;12.83;100.00
56182;BME280;51963;46.052;14.544;2023-09-08T03:08:43;98780.91;;;12.84;100.00
56182;BME280;51963;46.052;14.544;2023-09-08T03:11:09;98777.63;;;12.82;100.00
56182;BME280;51963;46.052;14.544;2023-09-08T03:13:35;98780.34;;;12.89;100.00
56182;BME280;51963;46.052;14.544;2023-09-08T03:16:08;98787.91;;;12.92;100.00
56182;BME280;51963;46.052;14.544;2023-09-08T03:18:35;98774.59;;;12.85;100.00
56182;BME280;51963;46.052;14.544;2023-09-08T03:21:02;98788.41;;;13.02;100.00
56182;BME280;51963;46.052;14.544;2023-09-08T03:23:38;98784.91;;;13.02;100.00
56182;BME280;51963;46.052;14.544;2023-09-08T03:26:05;98773.78;;;12.85;100.00
56182;BME280;51963;46.052;14.544;2023-09-08T03:28:32;98779.22;;;12.76;100.00
56182;BME280;51963;46.052;14.544;2023-09-08T03:31:00;98766.47;;;12.65;100.00
56182;BME280;51963;46.052;14.544;2023-09-08T03:33:26;98770.88;;;12.80;100.00
56182;BME280;51963;46.052;14.544;2023-09-08T03:35:52;98781.41;;;12.73;100.00
56182;BME280;51963;46.052;14.544;2023-09-08T03:38:18;98777.09;;;12.65;100.00
56182;BME280;51963;46.052;14.544;2023-09-08T03:40:44;98759.84;;;12.54;100.00
56182;BME280;51963;46.052;14.544;2023-09-08T03:43:09;98775.19;;;12.59;100.00
56182;BME280;51963;46.052;14.544;2023-09-08T03:45:35;98767.13;;;12.45;100.00
56182;BME280;51963;46.052;14.544;2023-09-08T03:48:04;98760.97;;;12.45;100.00
56182;BME280;51963;46.052;14.544;2023-09-08T03:50:30;98775.38;;;12.57;100.00
56182;BME280;51963;46.052;14.544;2023-09-08T03:52:56;98767.13;;;12.45;100.00
56182;BME280;51963;46.052;14.544;2023-09-08T03:55:23;98772.94;;;12.56;100.00
56182;BME280;51963;46.052;14.544;2023-09-08T03:57:49;98777.84;;;12.59;100.00
56182;BME280;51963;46.052;14.544;2023-09-08T04:00:15;98768.00;;;12.53;100.00
56182;BME280;51963;46.052;14.544;2023-09-08T04:02:51;98773.66;;;12.71;100.00
56182;BME280;51963;46.052;14.544;2023-09-08T04:05:17;98777.91;;;12.66;100.00
56182;BME280;51963;46.052;14.544;2023-09-08T04:07:46;98764.38;;;12.60;100.00
56182;BME280;51963;46.052;14.544;2023-09-08T04:10:12;98772.28;;;12.54;100.00
56182;BME280;51963;46.052;14.544;2023-09-08T04:12:39;98770.91;;;12.58;100.00
56182;BME280;51963;46.052;14.544;2023-09-08T04:15:07;98772.44;;;12.45;100.00
56182;BME280;51963;46.052;14.544;2023-09-08T04:17:33;98778.22;;;12.56;100.00
56182;BME280;51963;46.052;14.544;2023-09-08T04:19:59;98783.59;;;12.62;100.00
56182;BME280;51963;46.052;14.544;2023-09-08T04:22:24;98776.97;;;12.52;100.00
56182;BME280;51963;46.052;14.544;2023-09-08T04:24:50;98759.69;;;12.34;100.00
56182;BME280;51963;46.052;14.544;2023-09-08T04:27:17;98783.41;;;12.42;100.00
56182;BME280;51963;46.052;14.544;2023-09-08T04:29:42;98774.38;;;12.37;100.00
56182;BME280;51963;46.052;14.544;2023-09-08T04:32:08;98772.56;;;12.37;100.00
56182;BME280;51963;46.052;14.544;2023-09-08T04:34:38;98749.06;;;12.34;100.00
56182;BME280;51963;46.052;14.544;2023-09-08T04:37:04;98769.66;;;12.32;100.00
56182;BME280;51963;46.052;14.544;2023-09-08T04:39:30;98777.22;;;12.35;100.00
56182;BME280;51963;46.052;14.544;2023-09-08T04:41:55;98775.97;;;12.31;100.00
56182;BME280;51963;46.052;14.544;2023-09-08T04:44:21;98784.16;;;12.36;100.00
56182;BME280;51963;46.052;14.544;2023-09-08T04:46:48;98780.56;;;12.44;100.00
56182;BME280;51963;46.052;14.544;2023-09-08T04:49:16;98763.09;;;12.50;100.00
56182;BME280;51963;46.052;14.544;2023-09-08T04:51:43;98779.91;;;12.64;100.00
56182;BME280;51963;46.052;14.544;2023-09-08T04:54:09;98780.75;;;12.64;100.00
56182;BME280;51963;46.052;14.544;2023-09-08T04:56:35;98762.47;;;12.76;100.00
56182;BME280;51963;46.052;14.544;2023-09-08T04:59:03;98775.09;;;12.74;100.00
56182;BME280;51963;46.052;14.544;2023-09-08T05:01:29;98792.88;;;12.73;100.00
56182;BME280;51963;46.052;14.544;2023-09-08T05:03:59;98784.91;;;12.73;100.00
56182;BME280;51963;46.052;14.544;2023-09-08T05:06:26;98762.59;;;12.68;100.00
56182;BME280;51963;46.052;14.544;2023-09-08T05:08:52;98775.22;;;12.87;100.00
56182;BME280;51963;46.052;14.544;2023-09-08T05:11:18;98795.44;;;13.17;100.00
56182;BME280;51963;46.052;14.544;2023-09-08T05:13:46;98793.97;;;13.14;100.00
56182;BME280;51963;46.052;14.544;2023-09-08T05:16:14;98797.50;;;13.21;100.00
56182;BME280;51963;46.052;14.544;2023-09-08T05:18:46;98799.66;;;13.40;100.00
56182;BME280;51963;46.052;14.544;2023-09-08T05:21:12;98784.72;;;13.32;100.00
56182;BME280;51963;46.052;14.544;2023-09-08T05:23:40;98802.47;;;13.31;100.00
56182;BME280;51963;46.052;14.544;2023-09-08T05:26:05;98807.72;;;13.25;100.00
56182;BME280;51963;46.052;14.544;2023-09-08T05:28:32;98794.34;;;13.40;100.00
56182;BME280;51963;46.052;14.544;2023-09-08T05:30:57;98814.34;;;13.35;100.00
56182;BME280;51963;46.052;14.544;2023-09-08T05:33:24;98809.94;;;13.43;100.00
56182;BME280;51963;46.052;14.544;2023-09-08T05:35:52;98800.44;;;13.33;100.00
56182;BME280;51963;46.052;14.544;2023-09-08T05:38:18;98809.94;;;13.43;100.00
56182;BME280;51963;46.052;14.544;2023-09-08T05:40:44;98813.84;;;13.47;100.00
56182;BME280;51963;46.052;14.544;2023-09-08T05:43:10;98818.44;;;13.67;100.00
56182;BME280;51963;46.052;14.544;2023-09-08T05:45:36;98809.88;;;13.71;100.00
56182;BME280;51963;46.052;14.544;2023-09-08T05:48:02;98817.25;;;13.69;100.00
56182;BME280;51963;46.052;14.544;2023-09-08T05:50:28;98816.25;;;13.77;100.00
56182;BME280;51963;46.052;14.544;2023-09-08T05:52:54;98831.03;;;13.93;100.00
56182;BME280;51963;46.052;14.544;2023-09-08T05:55:21;98817.13;;;13.98;100.00
56182;BME280;51963;46.052;14.544;2023-09-08T05:57:48;98827.19;;;14.09;100.00
56182;BME280;51963;46.052;14.544;2023-09-08T06:00:14;98830.06;;;14.07;100.00
56182;BME280;51963;46.052;14.544;2023-09-08T06:02:46;98827.66;;;14.19;100.00
56182;BME280;51963;46.052;14.544;2023-09-08T06:05:16;98828.25;;;14.21;100.00
56182;BME280;51963;46.052;14.544;2023-09-08T06:07:42;98825.63;;;14.28;100.00
56182;BME280;51963;46.052;14.544;2023-09-08T06:10:09;98823.84;;;14.49;100.00
56182;BME280;51963;46.052;14.544;2023-09-08T06:12:40;98822.19;;;14.55;100.00
56182;BME280;51963;46.052;14.544;2023-09-08T06:15:06;98828.75;;;14.52;100.00
56182;BME280;51963;46.052;14.544;2023-09-08T06:17:33;98829.34;;;14.47;100.00
56182;BME280;51963;46.052;14.544;2023-09-08T06:19:59;98822.22;;;14.61;100.00
56182;BME280;51963;46.052;14.544;2023-09-08T06:22:26;98822.22;;;14.68;100.00
56182;BME280;51963;46.052;14.544;2023-09-08T06:24:52;98826.97;;;14.79;100.00
56182;BME280;51963;46.052;14.544;2023-09-08T06:27:17;98825.56;;;14.90;100.00
56182;BME280;51963;46.052;14.544;2023-09-08T06:29:44;98822.06;;;14.96;100.00
56182;BME280;51963;46.052;14.544;2023-09-08T06:32:12;98824.94;;;15.02;100.00
56182;BME280;51963;46.052;14.544;2023-09-08T06:34:40;98824.31;;;15.06;100.00
56182;BME280;51963;46.052;14.544;2023-09-08T06:37:10;98817.94;;;15.07;100.00
56182;BME280;51963;46.052;14.544;2023-09-08T06:39:39;98828.00;;;15.25;100.00
56182;BME280;51963;46.052;14.544;2023-09-08T06:42:05;98819.38;;;15.23;100.00
56182;BME280;51963;46.052;14.544;2023-09-08T06:44:31;98830.25;;;15.29;100.00
56182;BME280;51963;46.052;14.544;2023-09-08T06:46:59;98827.97;;;15.32;100.00
56182;BME280;51963;46.052;14.544;2023-09-08T06:49:26;98818.53;;;15.36;100.00
56182;BME280;51963;46.052;14.544;2023-09-08T06:51:52;98793.94;;;15.34;100.00
56182;BME280;51963;46.052;14.544;2023-09-08T06:54:20;98823.38;;;15.66;100.00
56182;BME280;51963;46.052;14.544;2023-09-08T06:56:46;98818.06;;;15.66;100.00
56182;BME280;51963;46.052;14.544;2023-09-08T06:59:12;98818.88;;;15.67;100.00
56182;BME280;51963;46.052;14.544;2023-09-08T07:01:37;98820.47;;;15.75;100.00
56182;BME280;51963;46.052;14.544;2023-09-08T07:04:04;98803.47;;;15.76;100.00
56182;BME280;51963;46.052;14.544;2023-09-08T07:06:33;98820.44;;;16.02;100.00
56182;BME280;51963;46.052;14.544;2023-09-08T07:09:02;98819.59;;;16.08;100.00
56182;BME280;51963;46.052;14.544;2023-09-08T07:11:29;98803.13;;;16.18;100.00
56182;BME280;51963;46.052;14.544;2023-09-08T07:13:56;98821.44;;;16.46;100.00
56182;BME280;51963;46.052;14.544;2023-09-08T07:16:22;98820.50;;;16.59;100.00
56182;BME280;51963;46.052;14.544;2023-09-08T07:18:48;98817.81;;;16.66;100.00
56182;BME280;51963;46.052;14.544;2023-09-08T07:21:14;98813.41;;;16.78;100.00
56182;BME280;51963;46.052;14.544;2023-09-08T07:23:40;98810.81;;;16.97;100.00
56182;BME280;51963;46.052;14.544;2023-09-08T07:26:07;98811.94;;;17.08;100.00
56182;BME280;51963;46.052;14.544;2023-09-08T07:28:34;98808.50;;;17.26;100.00
56182;BME280;51963;46.052;14.544;2023-09-08T07:31:04;98813.88;;;17.63;100.00
56182;BME280;51963;46.052;14.544;2023-09-08T07:33:32;98819.25;;;18.00;100.00
56182;BME280;51963;46.052;14.544;2023-09-08T07:36:06;98808.19;;;18.27;100.00
56182;BME280;51963;46.052;14.544;2023-09-08T07:38:32;98820.75;;;18.69;100.00
56182;BME280;51963;46.052;14.544;2023-09-08T07:41:01;98814.41;;;19.30;100.00
56182;BME280;51963;46.052;14.544;2023-09-08T07:43:30;98819.44;;;19.50;100.00
56182;BME280;51963;46.052;14.544;2023-09-08T07:45:56;98819.88;;;19.71;100.00
56182;BME280;51963;46.052;14.544;2023-09-08T07:48:22;98827.63;;;19.96;100.00
56182;BME280;51963;46.052;14.544;2023-09-08T07:50:47;98812.66;;;20.12;100.00
56182;BME280;51963;46.052;14.544;2023-09-08T07:53:25;98818.69;;;20.48;99.08
56182;BME280;51963;46.052;14.544;2023-09-08T07:55:56;98802.13;;;20.86;93.92
56182;BME280;51963;46.052;14.544;2023-09-08T07:58:22;98816.38;;;21.20;89.89
56182;BME280;51963;46.052;14.544;2023-09-08T08:00:48;98824.78;;;21.46;86.81
56182;BME280;51963;46.052;14.544;2023-09-08T08:03:14;98826.91;;;21.83;82.51
56182;BME280;51963;46.052;14.544;2023-09-08T08:05:47;98825.25;;;22.27;78.94
56182;BME280;51963;46.052;14.544;2023-09-08T08:08:12;98817.00;;;22.39;72.87
56182;BME280;51963;46.052;14.544;2023-09-08T08:10:40;98821.34;;;22.67;72.95
56182;BME280;51963;46.052;14.544;2023-09-08T08:13:06;98823.88;;;22.84;70.97
56182;BME280;51963;46.052;14.544;2023-09-08T08:15:37;98822.94;;;23.01;67.51
56182;BME280;51963;46.052;14.544;2023-09-08T08:18:04;98817.06;;;23.09;64.32
56182;BME280;51963;46.052;14.544;2023-09-08T08:20:31;98806.50;;;23.40;63.68
56182;BME280;51963;46.052;14.544;2023-09-08T08:23:01;98819.34;;;23.76;61.45
56182;BME280;51963;46.052;14.544;2023-09-08T08:25:27;98816.22;;;24.00;61.56
56182;BME280;51963;46.052;14.544;2023-09-08T08:27:53;98817.41;;;24.40;58.79
56182;BME280;51963;46.052;14.544;2023-09-08T08:30:19;98814.72;;;24.61;57.00
56182;BME280;51963;46.052;14.544;2023-09-08T08:32:45;98812.56;;;24.94;58.18
56182;BME280;51963;46.052;14.544;2023-09-08T08:35:11;98789.06;;;24.58;57.98
56182;BME280;51963;46.052;14.544;2023-09-08T08:37:39;98813.66;;;24.98;58.56
56182;BME280;51963;46.052;14.544;2023-09-08T08:40:06;98797.41;;;24.57;56.02
56182;BME280;51963;46.052;14.544;2023-09-08T08:42:32;98811.75;;;24.68;56.89
56182;BME280;51963;46.052;14.544;2023-09-08T08:44:59;98797.41;;;25.03;55.53
56182;BME280;51963;46.052;14.544;2023-09-08T08:47:27;98810.41;;;24.86;56.62
56182;BME280;51963;46.052;14.544;2023-09-08T08:49:56;98803.38;;;25.05;55.11
56182;BME280;51963;46.052;14.544;2023-09-08T08:52:25;98804.88;;;25.58;55.13
56182;BME280;51963;46.052;14.544;2023-09-08T08:54:51;98785.88;;;25.74;52.68
56182;BME280;51963;46.052;14.544;2023-09-08T08:57:17;98766.53;;;25.96;52.23
56182;BME280;51963;46.052;14.544;2023-09-08T08:59:43;98802.72;;;26.61;51.42
56182;BME280;51963;46.052;14.544;2023-09-08T09:02:11;98794.72;;;27.09;48.81
56182;BME280;51963;46.052;14.544;2023-09-08T09:04:37;98769.22;;;27.11;49.85
56182;BME280;51963;46.052;14.544;2023-09-08T09:07:05;98783.25;;;27.18;48.65
56182;BME280;51963;46.052;14.544;2023-09-08T09:09:31;98790.19;;;27.29;48.17
56182;BME280;51963;46.052;14.544;2023-09-08T09:11:57;98791.34;;;27.72;48.63
56182;BME280;51963;46.052;14.544;2023-09-08T09:14:23;98797.09;;;27.89;48.23
56182;BME280;51963;46.052;14.544;2023-09-08T09:16:49;98797.88;;;27.90;46.05
56182;BME280;51963;46.052;14.544;2023-09-08T09:19:20;98793.53;;;28.13;47.82
56182;BME280;51963;46.052;14.544;2023-09-08T09:21:58;98793.31;;;28.29;45.65
56182;BME280;51963;46.052;14.544;2023-09-08T09:24:32;98775.06;;;27.72;45.44
56182;BME280;51963;46.052;14.544;2023-09-08T09:27:00;98782.47;;;28.04;47.50
56182;BME280;51963;46.052;14.544;2023-09-08T09:29:27;98769.44;;;28.25;45.88
56182;BME280;51963;46.052;14.544;2023-09-08T09:31:55;98776.88;;;27.76;47.71
56182;BME280;51963;46.052;14.544;2023-09-08T09:34:22;98787.09;;;27.85;45.64
56182;BME280;51963;46.052;14.544;2023-09-08T09:36:49;98773.59;;;28.37;44.27
56182;BME280;51963;46.052;14.544;2023-09-08T09:39:20;98775.63;;;27.69;44.47
56182;BME280;51963;46.052;14.544;2023-09-08T09:41:47;98770.41;;;28.49;44.48
56182;BME280;51963;46.052;14.544;2023-09-08T09:44:13;98758.78;;;28.62;44.07
56182;BME280;51963;46.052;14.544;2023-09-08T09:46:43;98761.03;;;29.35;44.01
56182;BME280;51963;46.052;14.544;2023-09-08T09:49:13;98770.19;;;29.67;41.82
56182;BME280;51963;46.052;14.544;2023-09-08T09:51:44;98772.66;;;29.41;41.47
56182;BME280;51963;46.052;14.544;2023-09-08T09:54:14;98761.41;;;29.70;42.19
56182;BME280;51963;46.052;14.544;2023-09-08T09:56:41;98764.00;;;30.04;40.90
56182;BME280;51963;46.052;14.544;2023-09-08T09:59:12;98753.72;;;30.23;41.17
56182;BME280;51963;46.052;14.544;2023-09-08T10:01:39;98746.91;;;29.33;42.82
56182;BME280;51963;46.052;14.544;2023-09-08T10:04:05;98750.00;;;29.82;46.63
56182;BME280;51963;46.052;14.544;2023-09-08T10:06:37;98746.09;;;30.57;40.67
56182;BME280;51963;46.052;14.544;2023-09-08T10:09:04;98753.16;;;30.58;40.24
56182;BME280;51963;46.052;14.544;2023-09-08T10:12:03;98741.56;;;30.29;40.13
56182;BME280;51963;46.052;14.544;2023-09-08T10:14:35;98737.16;;;29.46;42.76
56182;BME280;51963;46.052;14.544;2023-09-08T10:17:01;98752.81;;;31.14;38.65
56182;BME280;51963;46.052;14.544;2023-09-08T10:19:28;98729.38;;;32.50;36.39
56182;BME280;51963;46.052;14.544;2023-09-08T10:21:57;98740.41;;;31.57;39.11
56182;BME280;51963;46.052;14.544;2023-09-08T10:24:27;98727.16;;;32.17;36.33
56182;BME280;51963;46.052;14.544;2023-09-08T10:27:04;98733.44;;;31.91;38.43
56182;BME280;51963;46.052;14.544;2023-09-08T10:29:34;98735.59;;;31.45;37.32
56182;BME280;51963;46.052;14.544;2023-09-08T10:32:00;98725.38;;;32.12;37.46
56182;BME280;51963;46.052;14.544;2023-09-08T10:34:27;98734.22;;;33.01;36.02
56182;BME280;51963;46.052;14.544;2023-09-08T10:36:54;98718.88;;;32.61;35.83
56182;BME280;51963;46.052;14.544;2023-09-08T10:39:31;98727.91;;;32.61;36.28
56182;BME280;51963;46.052;14.544;2023-09-08T10:47:18;98730.63;;;35.66;30.58
56182;BME280;51963;46.052;14.544;2023-09-08T10:49:45;98715.47;;;35.06;32.52
56182;BME280;51963;46.052;14.544;2023-09-08T10:52:14;98719.81;;;35.20;31.21
56182;BME280;51963;46.052;14.544;2023-09-08T10:54:49;98707.47;;;35.79;30.75
56182;BME280;51963;46.052;14.544;2023-09-08T10:57:16;98717.25;;;36.05;32.69
56182;BME280;51963;46.052;14.544;2023-09-08T10:59:53;98712.66;;;35.97;30.25
56182;BME280;51963;46.052;14.544;2023-09-08T11:02:40;98688.97;;;34.64;33.04
56182;BME280;51963;46.052;14.544;2023-09-08T11:05:12;98710.91;;;36.17;31.40
56182;BME280;51963;46.052;14.544;2023-09-08T11:07:45;98713.16;;;35.87;31.24
56182;BME280;51963;46.052;14.544;2023-09-08T11:10:12;98711.69;;;36.94;29.51
56182;BME280;51963;46.052;14.544;2023-09-08T11:12:38;98683.53;;;37.17;29.34
56182;BME280;51963;46.052;14.544;2023-09-08T11:15:05;98711.88;;;37.18;27.32
56182;BME280;51963;46.052;14.544;2023-09-08T11:17:37;98709.91;;;37.70;27.73
56182;BME280;51963;46.052;14.544;2023-09-08T11:20:08;98697.72;;;33.90;33.55
56182;BME280;51963;46.052;14.544;2023-09-08T11:22:35;98704.22;;;31.42;37.41
56182;BME280;51963;46.052;14.544;2023-09-08T11:25:02;98703.97;;;32.97;35.24
56182;BME280;51963;46.052;14.544;2023-09-08T11:27:31;98709.47;;;35.95;31.31
56182;BME280;51963;46.052;14.544;2023-09-08T11:29:57;98693.44;;;37.38;28.57
56182;BME280;51963;46.052;14.544;2023-09-08T11:32:23;98704.22;;;38.41;26.85
56182;BME280;51963;46.052;14.544;2023-09-08T11:34:50;98704.88;;;37.76;27.75
56182;BME280;51963;46.052;14.544;2023-09-08T11:37:17;98690.28;;;37.75;27.67
56182;BME280;51963;46.052;14.544;2023-09-08T11:39:45;98686.66;;;38.10;25.17
56182;BME280;51963;46.052;14.544;2023-09-08T11:42:12;98673.47;;;37.61;25.55
56182;BME280;51963;46.052;14.544;2023-09-08T11:44:38;98694.63;;;38.82;25.44
56182;BME280;51963;46.052;14.544;2023-09-08T11:47:06;98681.47;;;39.52;23.51
56182;BME280;51963;46.052;14.544;2023-09-08T11:49:40;98689.19;;;39.39;24.21
56182;BME280;51963;46.052;14.544;2023-09-08T11:52:06;98685.94;;;39.07;23.78
56182;BME280;51963;46.052;14.544;2023-09-08T11:54:34;98680.97;;;38.23;24.33
56182;BME280;51963;46.052;14.544;2023-09-08T11:57:01;98675.41;;;37.80;25.01
56182;BME280;51963;46.052;14.544;2023-09-08T11:59:30;98679.13;;;38.07;24.78
56182;BME280;51963;46.052;14.544;2023-09-08T12:01:56;98658.69;;;35.23;28.59
56182;BME280;51963;46.052;14.544;2023-09-08T12:04:22;98654.66;;;35.20;28.97
56182;BME280;51963;46.052;14.544;2023-09-08T12:06:49;98654.88;;;34.53;30.11
56182;BME280;51963;46.052;14.544;2023-09-08T12:09:15;98656.25;;;34.59;30.22
56182;BME280;51963;46.052;14.544;2023-09-08T12:11:42;98652.97;;;34.78;30.35
56182;BME280;51963;46.052;14.544;2023-09-08T12:14:14;98650.09;;;34.62;29.93
56182;BME280;51963;46.052;14.544;2023-09-08T12:16:43;98655.56;;;35.78;29.13
56182;BME280;51963;46.052;14.544;2023-09-08T12:19:30;98639.44;;;36.21;28.20
56182;BME280;51963;46.052;14.544;2023-09-08T12:22:03;98645.97;;;34.93;29.00
56182;BME280;51963;46.052;14.544;2023-09-08T12:27:22;98633.59;;;36.38;27.38
56182;BME280;51963;46.052;14.544;2023-09-08T12:32:22;98648.16;;;35.94;27.51
56182;BME280;51963;46.052;14.544;2023-09-08T12:34:48;98624.72;;;36.13;27.60
56182;BME280;51963;46.052;14.544;2023-09-08T12:37:13;98636.19;;;36.47;27.04
56182;BME280;51963;46.052;14.544;2023-09-08T12:39:43;98637.94;;;35.95;27.97
56182;BME280;51963;46.052;14.544;2023-09-08T12:42:09;98622.59;;;35.24;28.96
56182;BME280;51963;46.052;14.544;2023-09-08T12:44:34;98624.63;;;35.97;28.02
56182;BME280;51963;46.052;14.544;2023-09-08T12:47:00;98637.22;;;35.82;28.54
56182;BME280;51963;46.052;14.544;2023-09-08T12:49:26;98631.22;;;34.61;29.86
56182;BME280;51963;46.052;14.544;2023-09-08T12:51:52;98625.00;;;35.67;27.15
56182;BME280;51963;46.052;14.544;2023-09-08T12:54:18;98633.66;;;35.81;27.67
56182;BME280;51963;46.052;14.544;2023-09-08T12:56:44;98624.06;;;36.84;26.58